createdAt,value
2022-09-15T00:08:20.642Z,2.47
2022-09-15T00:23:22.503Z,2.67
2022-09-15T00:38:24.294Z,5.13
2022-09-15T00:53:27.326Z,2.90
2022-09-15T01:08:37.207Z,3.00
2022-09-15T01:24:06.406Z,2.47
2022-09-15T01:39:15.507Z,1.85
2022-09-15T01:54:22.402Z,2.13
2022-09-15T02:09:38.818Z,2.27
2022-09-15T02:24:49.602Z,2.23
2022-09-15T02:40:00.496Z,2.40
2022-09-15T02:55:02.539Z,2.27
2022-09-15T03:10:06.793Z,2.30
2022-09-15T03:25:09.861Z,2.47
2022-09-15T03:40:12.152Z,2.38
2022-09-15T03:55:14.172Z,2.05
2022-09-15T04:10:16.738Z,2.50
2022-09-15T04:25:18.581Z,2.65
2022-09-15T04:40:20.557Z,2.50
2022-09-15T04:55:22.674Z,2.80
2022-09-15T05:10:24.530Z,2.47
2022-09-15T05:25:26.586Z,2.90
2022-09-15T05:40:28.436Z,2.78
2022-09-15T05:55:30.954Z,2.70
2022-09-15T06:10:32.989Z,2.50
2022-09-15T06:25:35.088Z,3.03
2022-09-15T06:40:37.362Z,2.50
2022-09-15T06:55:39.292Z,2.27
2022-09-15T07:10:45.029Z,2.40
2022-09-15T07:25:47.169Z,2.17
2022-09-15T07:40:49.605Z,4.23
2022-09-15T08:10:56.923Z,2.22
2022-09-15T08:25:58.937Z,2.90
2022-09-15T08:41:09.668Z,2.65
2022-09-15T08:56:17.411Z,3.20
2022-09-15T09:11:44.054Z,3.45
2022-09-15T09:26:54.421Z,3.60
2022-09-15T09:41:57.061Z,3.78
2022-09-15T09:57:14.347Z,3.97
2022-09-15T10:12:24.426Z,3.67
2022-09-15T10:27:35.104Z,3.50
2022-09-15T10:42:53.087Z,3.47
2022-09-15T10:58:05.257Z,3.53
2022-09-15T11:13:26.281Z,3.88
2022-09-15T11:28:40.681Z,3.33
2022-09-15T11:44:16.839Z,3.45
2022-09-15T12:15:29.571Z,3.35
2022-09-15T12:45:43.842Z,3.60
2022-09-15T13:01:13.850Z,3.97
2022-09-15T13:16:14.974Z,4.07
2022-09-15T13:31:30.992Z,3.72
2022-09-15T13:47:06.991Z,5.07
2022-09-15T14:02:09.645Z,4.43
2022-09-15T14:17:27.472Z,4.80
2022-09-15T14:32:32.398Z,4.47
2022-09-15T14:47:36.850Z,5.43
2022-09-15T15:03:16.172Z,4.18
2022-09-15T15:18:37.809Z,5.22
2022-09-15T15:33:47.493Z,5.43
2022-09-15T15:48:50.516Z,5.95
2022-09-15T16:03:52.775Z,7.20
2022-09-15T16:18:54.739Z,9.32
2022-09-15T16:33:56.773Z,22.27
2022-09-15T16:48:58.770Z,12.93
2022-09-15T17:04:02.050Z,13.40
2022-09-15T17:19:03.984Z,13.07
2022-09-15T17:34:11.967Z,9.98
2022-09-15T17:49:16.511Z,12.32
2022-09-15T18:04:18.455Z,10.77
2022-09-15T18:19:20.279Z,27.83
2022-09-15T18:34:22.506Z,13.55
2022-09-15T18:49:24.511Z,14.95
2022-09-15T19:04:31.626Z,13.80
2022-09-15T19:19:34.554Z,13.70
2022-09-15T19:34:38.640Z,14.00
2022-09-15T19:49:40.505Z,55.78
2022-09-15T20:04:42.441Z,15.77
2022-09-15T20:19:44.325Z,17.67
2022-09-15T20:34:49.170Z,14.95
2022-09-15T20:49:50.953Z,19.27
2022-09-15T21:04:52.833Z,15.05
2022-09-15T21:19:54.646Z,14.57
2022-09-15T21:34:56.458Z,13.93
2022-09-15T21:49:58.866Z,14.35
2022-09-15T22:05:00.719Z,13.02
2022-09-15T22:20:03.053Z,13.57
2022-09-15T22:35:05.990Z,15.77
2022-09-15T22:50:08.097Z,15.48
2022-09-15T23:05:13.206Z,15.52
2022-09-15T23:20:15.146Z,17.20
2022-09-15T23:35:16.940Z,16.33
2022-09-15T23:50:18.772Z,15.98
